createdAt,value
2017-08-20T00:00:05.818Z,92.37
2017-08-20T00:02:33.266Z,92.37
2017-08-20T00:05:00.718Z,92.47
2017-08-20T00:07:28.143Z,92.51
2017-08-20T00:09:55.554Z,92.44
2017-08-20T00:12:22.950Z,92.50
2017-08-20T00:14:50.345Z,92.56
2017-08-20T00:17:17.784Z,92.50
2017-08-20T00:19:45.182Z,92.48
2017-08-20T00:22:12.587Z,92.13
2017-08-20T00:24:40.106Z,92.21
2017-08-20T00:27:07.503Z,92.30
2017-08-20T00:29:34.902Z,92.16
2017-08-20T00:32:02.451Z,92.15
2017-08-20T00:34:29.846Z,92.15
2017-08-20T00:36:57.237Z,92.08
2017-08-20T00:39:24.687Z,91.93
2017-08-20T00:41:52.087Z,91.99
2017-08-20T00:44:19.495Z,92.05
2017-08-20T00:46:47.574Z,92.17
2017-08-20T00:49:14.979Z,92.19
2017-08-20T00:51:42.383Z,92.25
2017-08-20T00:54:09.795Z,92.17
2017-08-20T00:56:37.198Z,92.19
2017-08-20T00:59:04.594Z,92.20
2017-08-20T01:01:32.150Z,92.19
2017-08-20T01:03:59.550Z,92.09
2017-08-20T01:06:26.963Z,92.00
2017-08-20T01:08:54.520Z,91.98
2017-08-20T01:11:21.915Z,92.04
2017-08-20T01:13:49.347Z,92.15
2017-08-20T01:16:16.751Z,92.16
2017-08-20T01:18:44.162Z,92.17
2017-08-20T01:21:11.558Z,92.24
2017-08-20T01:23:38.978Z,92.22
2017-08-20T01:26:06.378Z,92.14
2017-08-20T01:28:33.787Z,92.25
2017-08-20T01:31:01.203Z,92.40
2017-08-20T01:33:28.601Z,92.43
2017-08-20T01:35:55.994Z,92.47
2017-08-20T01:38:23.498Z,92.42
2017-08-20T01:40:50.894Z,92.45
2017-08-20T01:43:18.305Z,92.46
2017-08-20T01:45:45.718Z,92.53
2017-08-20T01:48:13.123Z,92.66
2017-08-20T01:50:40.526Z,92.60
2017-08-20T01:53:07.930Z,92.45
2017-08-20T01:55:35.322Z,92.38
2017-08-20T01:58:02.718Z,92.43
2017-08-20T02:00:42.107Z,92.49
2017-08-20T02:03:09.510Z,92.54
2017-08-20T02:05:37.145Z,92.59
2017-08-20T02:08:04.677Z,92.51
2017-08-20T02:10:32.054Z,92.34
2017-08-20T02:12:59.466Z,92.35
2017-08-20T02:15:26.894Z,92.34
2017-08-20T02:17:54.306Z,92.20
2017-08-20T02:20:21.707Z,92.18
2017-08-20T02:22:49.161Z,92.19
2017-08-20T02:25:16.558Z,92.19
2017-08-20T02:27:43.965Z,91.93
2017-08-20T02:30:11.386Z,91.72
2017-08-20T02:32:38.812Z,91.74
2017-08-20T02:35:06.208Z,91.75
2017-08-20T02:37:33.622Z,91.75
2017-08-20T02:40:01.049Z,91.74
2017-08-20T02:42:28.450Z,91.72
2017-08-20T02:44:55.851Z,91.73
2017-08-20T02:47:23.243Z,91.69
2017-08-20T02:49:50.642Z,91.53
2017-08-20T02:52:18.146Z,91.42
2017-08-20T02:54:45.541Z,91.30
2017-08-20T02:57:12.938Z,90.87
2017-08-20T02:59:40.347Z,90.82
2017-08-20T03:02:07.742Z,90.90
2017-08-20T03:04:35.138Z,90.89
2017-08-20T03:07:02.543Z,90.78
2017-08-20T03:09:29.944Z,90.85
2017-08-20T03:11:57.340Z,90.98
2017-08-20T03:14:24.894Z,90.95
2017-08-20T03:16:52.291Z,90.52
2017-08-20T03:19:19.711Z,90.74
2017-08-20T03:21:47.218Z,90.86
2017-08-20T03:24:14.618Z,90.94
2017-08-20T03:26:42.018Z,90.86
2017-08-20T03:29:09.473Z,90.74
2017-08-20T03:31:36.874Z,90.86
2017-08-20T03:34:04.298Z,90.57
2017-08-20T03:36:31.903Z,90.64
2017-08-20T03:38:59.298Z,90.76
2017-08-20T03:41:26.699Z,90.87
2017-08-20T03:43:54.110Z,91.01
2017-08-20T03:46:21.507Z,91.07
2017-08-20T03:48:48.898Z,91.00
2017-08-20T03:51:16.402Z,90.97
2017-08-20T03:53:43.814Z,90.94
2017-08-20T03:56:11.211Z,91.03
2017-08-20T03:58:38.638Z,91.16
2017-08-20T04:01:06.033Z,90.21
2017-08-20T04:03:33.426Z,90.45
2017-08-20T04:06:00.842Z,90.73
2017-08-20T04:08:28.242Z,90.90
2017-08-20T04:10:55.642Z,90.92
2017-08-20T04:13:23.091Z,90.77
2017-08-20T04:15:50.487Z,90.76
2017-08-20T04:18:17.883Z,90.48
2017-08-20T04:20:45.326Z,90.51
2017-08-20T04:23:12.731Z,90.68
2017-08-20T04:25:40.127Z,90.89
2017-08-20T04:28:07.537Z,91.00
2017-08-20T04:30:34.959Z,91.07
2017-08-20T04:33:02.383Z,91.11
2017-08-20T04:35:30.174Z,90.72
2017-08-20T04:37:57.578Z,90.77
2017-08-20T04:40:24.982Z,90.76
2017-08-20T04:42:52.390Z,90.37
2017-08-20T04:45:19.790Z,90.56
2017-08-20T04:47:47.186Z,90.61
2017-08-20T04:50:14.602Z,90.68
2017-08-20T04:52:42.010Z,90.22
2017-08-20T04:55:09.410Z,90.41
2017-08-20T04:57:36.915Z,90.59
2017-08-20T05:00:04.315Z,90.68
2017-08-20T05:02:31.720Z,90.85
2017-08-20T05:04:59.138Z,90.77
2017-08-20T05:07:26.534Z,90.84
2017-08-20T05:09:53.946Z,90.79
2017-08-20T05:12:21.714Z,90.25
2017-08-20T05:14:49.122Z,90.21
2017-08-20T05:17:16.515Z,90.36
2017-08-20T05:19:44.022Z,90.36
2017-08-20T05:22:11.418Z,90.43
2017-08-20T05:24:38.810Z,89.89
2017-08-20T05:27:06.362Z,90.11
2017-08-20T05:29:33.762Z,90.03
2017-08-20T05:32:01.163Z,89.74
2017-08-20T05:34:28.723Z,89.57
2017-08-20T05:36:56.119Z,89.13
2017-08-20T05:39:23.522Z,88.80
2017-08-20T05:41:50.926Z,88.69
2017-08-20T05:44:18.322Z,88.64
2017-08-20T05:46:45.719Z,88.75
2017-08-20T05:49:13.266Z,89.18
2017-08-20T05:51:40.663Z,89.61
2017-08-20T05:54:08.058Z,89.30
2017-08-20T05:56:35.610Z,89.44
2017-08-20T05:59:03.004Z,89.85
2017-08-20T06:01:30.401Z,89.80
2017-08-20T06:03:58.139Z,89.83
2017-08-20T06:06:25.543Z,88.97
2017-08-20T06:08:52.947Z,88.91
2017-08-20T06:11:20.495Z,89.24
2017-08-20T06:13:47.890Z,88.99
2017-08-20T06:16:15.291Z,87.70
2017-08-20T06:18:42.859Z,88.09
2017-08-20T06:21:10.299Z,87.84
2017-08-20T06:23:37.689Z,88.31
2017-08-20T06:26:05.098Z,88.10
2017-08-20T06:28:32.490Z,88.19
2017-08-20T06:30:59.882Z,88.45
2017-08-20T06:33:27.291Z,88.67
2017-08-20T06:35:54.687Z,88.25
2017-08-20T06:38:22.077Z,88.37
2017-08-20T06:40:49.538Z,88.74
2017-08-20T06:43:16.942Z,87.06
2017-08-20T06:45:44.350Z,87.17
2017-08-20T06:48:11.822Z,85.46
2017-08-20T06:50:39.222Z,85.20
2017-08-20T06:53:06.622Z,86.06
2017-08-20T06:55:34.191Z,86.10
2017-08-20T06:58:01.587Z,84.59
2017-08-20T07:00:28.984Z,84.87
2017-08-20T07:02:56.442Z,85.47
2017-08-20T07:05:23.850Z,85.49
2017-08-20T07:07:51.268Z,85.35
2017-08-20T07:10:18.694Z,84.09
2017-08-20T07:12:46.107Z,84.02
2017-08-20T07:15:13.570Z,84.78
2017-08-20T07:17:41.088Z,85.17
2017-08-20T07:20:08.488Z,85.06
2017-08-20T07:22:35.895Z,86.05
2017-08-20T07:25:03.450Z,86.42
2017-08-20T07:27:30.869Z,85.57
2017-08-20T07:29:58.271Z,85.93
2017-08-20T07:32:25.698Z,85.92
2017-08-20T07:34:53.093Z,86.83
2017-08-20T07:37:20.485Z,86.37
2017-08-20T07:39:48.421Z,87.26
2017-08-20T07:42:15.818Z,88.33
2017-08-20T07:44:43.226Z,87.87
2017-08-20T07:47:10.747Z,87.19
2017-08-20T07:49:38.141Z,85.36
2017-08-20T07:52:05.534Z,86.06
2017-08-20T07:54:32.954Z,84.75
2017-08-20T07:57:00.349Z,86.11
2017-08-20T07:59:27.746Z,86.16
2017-08-20T08:01:55.163Z,85.09
2017-08-20T08:04:22.554Z,86.13
2017-08-20T08:06:49.952Z,85.92
2017-08-20T08:09:17.366Z,86.38
2017-08-20T08:11:44.761Z,86.08
2017-08-20T08:14:12.160Z,86.99
2017-08-20T08:16:39.665Z,87.33
2017-08-20T08:19:07.058Z,85.70
2017-08-20T08:21:34.454Z,85.44
2017-08-20T08:24:01.867Z,84.51
2017-08-20T08:26:29.264Z,84.79
2017-08-20T08:28:56.659Z,85.05
2017-08-20T08:31:24.210Z,84.22
2017-08-20T08:33:51.630Z,84.05
2017-08-20T08:36:19.033Z,84.93
2017-08-20T08:38:46.612Z,83.61
2017-08-20T08:41:14.006Z,83.85
2017-08-20T08:43:41.399Z,83.24
2017-08-20T08:46:08.968Z,85.14
2017-08-20T08:48:36.356Z,82.78
2017-08-20T08:51:03.754Z,81.43
2017-08-20T08:53:31.351Z,81.93
2017-08-20T08:55:58.743Z,81.17
2017-08-20T08:58:26.193Z,80.45
2017-08-20T09:00:53.602Z,81.73
2017-08-20T09:03:20.994Z,81.31
2017-08-20T09:05:48.395Z,80.63
2017-08-20T09:08:15.947Z,81.36
2017-08-20T09:10:43.334Z,82.06
2017-08-20T09:13:10.745Z,81.56
2017-08-20T09:15:38.149Z,77.26
2017-08-20T09:18:05.561Z,78.10
2017-08-20T09:20:32.955Z,78.20
2017-08-20T09:23:00.698Z,77.09
2017-08-20T09:25:28.090Z,76.81
2017-08-20T09:27:55.490Z,77.76
2017-08-20T09:30:23.011Z,77.33
2017-08-20T09:32:50.411Z,78.04
2017-08-20T09:35:17.815Z,75.44
2017-08-20T09:37:45.234Z,73.76
2017-08-20T09:40:12.627Z,74.53
2017-08-20T09:42:40.030Z,75.12
2017-08-20T09:45:07.595Z,73.32
2017-08-20T09:47:35.404Z,73.46
2017-08-20T09:50:02.798Z,74.10
2017-08-20T09:52:30.355Z,72.01
2017-08-20T09:54:57.750Z,70.23
2017-08-20T09:57:25.146Z,70.07
2017-08-20T09:59:52.559Z,70.58
2017-08-20T10:02:19.955Z,71.35
2017-08-20T10:04:47.358Z,67.94
2017-08-20T10:07:14.914Z,70.40
2017-08-20T10:09:44.099Z,68.08
2017-08-20T10:12:11.499Z,68.96
2017-08-20T10:14:38.946Z,70.09
2017-08-20T10:17:06.358Z,70.78
2017-08-20T10:19:33.747Z,70.09
2017-08-20T10:22:01.294Z,70.97
2017-08-20T10:24:28.690Z,70.24
2017-08-20T10:26:56.093Z,72.37
2017-08-20T10:29:23.599Z,70.09
2017-08-20T10:31:51.003Z,70.74
2017-08-20T10:34:18.411Z,70.75
2017-08-20T10:36:46.219Z,71.53
2017-08-20T10:39:13.611Z,69.46
2017-08-20T10:41:41.009Z,69.30
2017-08-20T10:44:08.415Z,66.42
2017-08-20T10:46:35.801Z,63.33
2017-08-20T10:49:03.191Z,59.39
2017-08-20T10:51:30.690Z,60.90
2017-08-20T10:53:58.079Z,60.21
2017-08-20T10:56:25.474Z,62.04
2017-08-20T10:58:53.021Z,62.45
2017-08-20T11:01:20.414Z,62.93
2017-08-20T11:03:47.810Z,62.48
2017-08-20T11:06:15.219Z,63.60
2017-08-20T11:08:42.617Z,63.84
2017-08-20T11:11:10.015Z,60.97
2017-08-20T11:13:37.770Z,60.51
2017-08-20T11:16:05.158Z,61.07
2017-08-20T11:18:32.560Z,60.78
2017-08-20T11:20:59.962Z,60.23
2017-08-20T11:23:27.354Z,62.11
2017-08-20T11:25:54.751Z,62.58
2017-08-20T11:28:22.170Z,61.51
2017-08-20T11:30:49.558Z,59.86
2017-08-20T11:33:16.955Z,60.07
2017-08-20T11:35:44.456Z,61.55
2017-08-20T11:38:11.841Z,61.40
2017-08-20T11:40:39.232Z,59.70
2017-08-20T11:43:06.635Z,60.27
2017-08-20T11:45:34.023Z,61.18
2017-08-20T11:48:01.418Z,60.95
2017-08-20T11:50:28.822Z,61.54
2017-08-20T11:52:56.219Z,60.06
2017-08-20T11:55:23.614Z,60.25
2017-08-20T11:57:51.158Z,61.55
2017-08-20T12:00:18.563Z,58.85
2017-08-20T12:02:45.954Z,58.92
2017-08-20T12:05:13.367Z,59.45
2017-08-20T12:07:40.758Z,57.18
2017-08-20T12:10:08.154Z,55.76
2017-08-20T12:12:35.658Z,53.94
2017-08-20T12:15:03.047Z,53.92
2017-08-20T12:17:30.446Z,55.28
2017-08-20T12:19:57.862Z,55.42
2017-08-20T12:22:25.258Z,56.69
2017-08-20T12:24:52.650Z,57.72
2017-08-20T12:27:20.194Z,58.80
2017-08-20T12:29:47.589Z,58.35
2017-08-20T12:32:14.987Z,59.67
2017-08-20T12:34:42.405Z,60.20
2017-08-20T12:37:09.798Z,60.16
2017-08-20T12:39:37.194Z,59.59
2017-08-20T12:42:04.691Z,59.06
2017-08-20T12:44:32.082Z,58.14
2017-08-20T12:46:59.482Z,57.30
2017-08-20T12:49:27.375Z,55.73
2017-08-20T12:51:54.771Z,53.96
2017-08-20T12:54:22.172Z,54.20
2017-08-20T12:56:49.719Z,56.18
2017-08-20T12:59:17.110Z,54.89
2017-08-20T13:01:44.512Z,55.60
2017-08-20T13:04:11.951Z,56.84
2017-08-20T13:06:39.346Z,55.26
2017-08-20T13:09:06.739Z,54.35
2017-08-20T13:11:34.137Z,54.61
2017-08-20T13:14:01.608Z,52.82
2017-08-20T13:16:29.018Z,53.45
2017-08-20T13:18:56.832Z,55.20
2017-08-20T13:21:24.231Z,52.90
2017-08-20T13:23:51.625Z,53.95
2017-08-20T13:26:19.438Z,54.29
2017-08-20T13:28:46.830Z,53.87
2017-08-20T13:31:14.226Z,52.86
2017-08-20T13:33:41.790Z,54.57
2017-08-20T13:36:09.186Z,55.17
2017-08-20T13:38:36.581Z,55.21
2017-08-20T13:41:04.098Z,56.08
2017-08-20T13:43:31.509Z,54.60
2017-08-20T13:45:58.902Z,54.76
2017-08-20T13:48:26.326Z,53.14
2017-08-20T13:50:53.723Z,53.26
2017-08-20T13:53:21.127Z,51.10
2017-08-20T13:55:48.670Z,53.61
2017-08-20T13:58:16.067Z,51.07
2017-08-20T14:00:43.462Z,50.31
2017-08-20T14:03:10.871Z,52.08
2017-08-20T14:05:38.271Z,53.95
2017-08-20T14:08:05.672Z,52.45
2017-08-20T14:10:33.223Z,53.50
2017-08-20T14:13:00.624Z,52.88
2017-08-20T14:15:28.026Z,54.98
2017-08-20T14:17:55.574Z,53.41
2017-08-20T14:20:22.978Z,53.76
2017-08-20T14:22:50.386Z,54.41
2017-08-20T14:25:17.935Z,54.90
2017-08-20T14:27:45.330Z,56.41
2017-08-20T14:30:13.562Z,55.26
2017-08-20T14:32:41.073Z,56.25
2017-08-20T14:35:08.475Z,55.80
2017-08-20T14:37:35.866Z,56.68
2017-08-20T14:40:03.449Z,56.94
2017-08-20T14:42:30.836Z,55.98
2017-08-20T14:44:58.220Z,56.91
2017-08-20T14:47:25.618Z,56.60
2017-08-20T14:49:53.014Z,56.53
2017-08-20T14:52:20.407Z,57.02
2017-08-20T14:54:47.959Z,56.58
2017-08-20T14:57:15.354Z,54.36
2017-08-20T14:59:42.749Z,56.02
2017-08-20T15:02:10.195Z,56.45
2017-08-20T15:04:37.600Z,53.47
2017-08-20T15:07:04.990Z,55.13
2017-08-20T15:09:32.550Z,54.54
2017-08-20T15:11:59.935Z,53.86
2017-08-20T15:14:27.338Z,52.71
2017-08-20T15:16:54.742Z,52.60
2017-08-20T15:19:22.134Z,52.92
2017-08-20T15:21:49.530Z,52.14
2017-08-20T15:24:17.076Z,53.08
2017-08-20T15:26:44.467Z,54.02
2017-08-20T15:29:11.858Z,53.77
2017-08-20T15:31:39.403Z,52.82
2017-08-20T15:34:06.795Z,54.86
2017-08-20T15:36:34.191Z,50.99
2017-08-20T15:39:01.610Z,52.42
2017-08-20T15:41:29.002Z,52.57
2017-08-20T15:43:56.398Z,53.86
2017-08-20T15:46:23.950Z,52.33
2017-08-20T15:48:51.358Z,53.94
2017-08-20T15:51:18.738Z,53.77
2017-08-20T15:53:46.246Z,52.20
2017-08-20T15:56:13.660Z,48.81
2017-08-20T15:58:41.046Z,48.37
2017-08-20T16:01:08.850Z,48.69
2017-08-20T16:03:36.245Z,48.91
2017-08-20T16:06:03.634Z,50.44
2017-08-20T16:08:31.182Z,50.26
2017-08-20T16:10:58.584Z,50.61
2017-08-20T16:13:25.976Z,51.01
2017-08-20T16:15:53.518Z,51.85
2017-08-20T16:18:20.919Z,52.16
2017-08-20T16:20:48.312Z,52.21
2017-08-20T16:23:15.710Z,52.30
2017-08-20T16:25:43.103Z,52.68
2017-08-20T16:28:10.495Z,52.14
2017-08-20T16:30:37.907Z,52.16
2017-08-20T16:33:05.298Z,53.26
2017-08-20T16:35:32.690Z,53.17
2017-08-20T16:38:00.502Z,54.30
2017-08-20T16:40:27.899Z,53.80
2017-08-20T16:42:55.294Z,53.59
2017-08-20T16:45:22.702Z,52.71
2017-08-20T16:47:50.099Z,55.23
2017-08-20T16:50:17.496Z,55.17
2017-08-20T16:52:44.902Z,54.20
2017-08-20T16:55:12.304Z,54.77
2017-08-20T16:57:39.698Z,53.33
2017-08-20T17:00:07.118Z,53.17
2017-08-20T17:02:34.528Z,54.52
2017-08-20T17:05:01.943Z,53.34
2017-08-20T17:07:29.404Z,52.67
2017-08-20T17:09:56.849Z,55.48
2017-08-20T17:12:24.254Z,52.59
2017-08-20T17:14:51.802Z,53.34
2017-08-20T17:17:19.254Z,53.64
2017-08-20T17:19:46.665Z,56.07
2017-08-20T17:22:14.531Z,56.84
2017-08-20T17:24:41.926Z,56.06
2017-08-20T17:27:09.322Z,55.91
2017-08-20T17:29:37.110Z,56.54
2017-08-20T17:32:04.508Z,56.04
2017-08-20T17:34:31.906Z,55.15
2017-08-20T17:36:59.455Z,55.25
2017-08-20T17:39:26.858Z,55.76
2017-08-20T17:41:54.271Z,55.99
2017-08-20T17:44:21.683Z,57.44
2017-08-20T17:46:49.094Z,56.58
2017-08-20T17:49:16.499Z,54.80
2017-08-20T17:51:43.905Z,55.35
2017-08-20T17:54:11.303Z,55.01
2017-08-20T17:56:38.698Z,54.60
2017-08-20T17:59:06.466Z,54.73
2017-08-20T18:01:33.874Z,55.26
2017-08-20T18:04:01.283Z,55.65
2017-08-20T18:06:28.818Z,55.52
2017-08-20T18:08:56.225Z,56.10
2017-08-20T18:11:23.619Z,56.81
2017-08-20T18:13:51.041Z,57.25
2017-08-20T18:16:18.427Z,57.89
2017-08-20T18:18:45.832Z,57.54
2017-08-20T18:21:13.389Z,57.39
2017-08-20T18:23:40.782Z,57.37
2017-08-20T18:26:08.182Z,57.88
2017-08-20T18:28:35.622Z,58.01
2017-08-20T18:31:03.038Z,58.19
2017-08-20T18:33:30.426Z,58.66
2017-08-20T18:35:57.982Z,58.94
2017-08-20T18:38:25.385Z,59.51
2017-08-20T18:40:52.779Z,59.84
2017-08-20T18:43:20.330Z,60.47
2017-08-20T18:45:47.722Z,61.75
2017-08-20T18:48:15.118Z,60.50
2017-08-20T18:50:42.970Z,61.24
2017-08-20T18:53:10.387Z,62.74
2017-08-20T18:55:38.402Z,63.46
2017-08-20T18:58:05.892Z,63.45
2017-08-20T19:00:33.292Z,62.56
2017-08-20T19:03:00.686Z,63.72
2017-08-20T19:05:28.402Z,65.21
2017-08-20T19:07:55.811Z,64.44
2017-08-20T19:10:23.210Z,66.05
2017-08-20T19:12:50.766Z,67.52
2017-08-20T19:15:18.166Z,67.50
2017-08-20T19:17:45.569Z,68.24
2017-08-20T19:20:12.987Z,68.85
2017-08-20T19:22:40.383Z,69.44
2017-08-20T19:25:07.806Z,69.87
2017-08-20T19:27:35.711Z,70.09
2017-08-20T19:30:03.098Z,70.55
2017-08-20T19:32:30.498Z,71.33
2017-08-20T19:34:57.918Z,71.54
2017-08-20T19:37:25.323Z,71.73
2017-08-20T19:39:52.710Z,71.96
2017-08-20T19:42:20.131Z,72.22
2017-08-20T19:44:47.541Z,72.44
2017-08-20T19:47:14.938Z,72.55
2017-08-20T19:49:42.378Z,72.94
2017-08-20T19:52:09.774Z,73.35
2017-08-20T19:54:37.179Z,73.72
2017-08-20T19:57:04.964Z,74.02
2017-08-20T19:59:32.554Z,74.08
2017-08-20T20:01:59.964Z,74.40
2017-08-20T20:04:27.475Z,73.97
2017-08-20T20:06:54.870Z,74.55
2017-08-20T20:09:22.267Z,75.27
2017-08-20T20:11:49.822Z,75.25
2017-08-20T20:14:17.218Z,75.53
2017-08-20T20:16:44.622Z,75.62
2017-08-20T20:19:12.136Z,75.99
2017-08-20T20:21:39.526Z,76.35
2017-08-20T20:24:06.922Z,76.66
2017-08-20T20:26:34.862Z,76.72
2017-08-20T20:29:02.259Z,76.55
2017-08-20T20:31:29.655Z,76.54
2017-08-20T20:33:57.064Z,76.47
2017-08-20T20:36:24.469Z,76.49
2017-08-20T20:38:51.862Z,76.36
2017-08-20T20:41:19.282Z,76.11
2017-08-20T20:43:46.674Z,76.61
2017-08-20T20:46:14.083Z,76.85
2017-08-20T20:48:41.494Z,77.10
2017-08-20T20:51:08.896Z,77.38
2017-08-20T20:53:36.291Z,77.70
2017-08-20T20:56:03.714Z,77.84
2017-08-20T20:58:31.119Z,77.89
2017-08-20T21:00:58.511Z,78.35
2017-08-20T21:03:26.314Z,78.82
2017-08-20T21:05:53.710Z,78.85
2017-08-20T21:08:21.105Z,78.84
2017-08-20T21:10:48.520Z,78.95
2017-08-20T21:13:15.914Z,79.23
2017-08-20T21:15:43.312Z,79.17
2017-08-20T21:18:10.718Z,78.99
2017-08-20T21:20:38.127Z,78.83
2017-08-20T21:23:05.522Z,78.92
2017-08-20T21:25:32.946Z,78.99
2017-08-20T21:28:00.347Z,78.88
2017-08-20T21:30:27.743Z,79.36
2017-08-20T21:32:55.166Z,79.66
2017-08-20T21:35:22.566Z,79.81
2017-08-20T21:37:49.958Z,79.95
2017-08-20T21:40:17.374Z,79.93
2017-08-20T21:42:44.774Z,80.02
2017-08-20T21:45:12.171Z,80.18
2017-08-20T21:47:39.672Z,80.38
2017-08-20T21:50:07.073Z,80.62
2017-08-20T21:52:34.490Z,80.98
2017-08-20T21:55:02.222Z,80.32
2017-08-20T21:57:29.619Z,80.27
2017-08-20T21:59:57.016Z,79.27
2017-08-20T22:02:24.566Z,78.51
2017-08-20T22:04:51.962Z,78.20
2017-08-20T22:07:19.360Z,79.02
2017-08-20T22:09:46.876Z,79.62
2017-08-20T22:12:14.279Z,79.99
2017-08-20T22:14:41.682Z,80.31
2017-08-20T22:17:09.226Z,80.42
2017-08-20T22:19:36.622Z,80.32
2017-08-20T22:22:04.018Z,80.22
2017-08-20T22:24:31.419Z,80.29
2017-08-20T22:26:58.833Z,80.53
2017-08-20T22:29:26.222Z,80.63
2017-08-20T22:31:53.967Z,80.89
2017-08-20T22:34:21.358Z,80.98
2017-08-20T22:36:49.052Z,80.74
2017-08-20T22:39:16.603Z,80.66
2017-08-20T22:41:44.006Z,80.79
2017-08-20T22:44:11.403Z,80.93
2017-08-20T22:46:38.807Z,80.89
2017-08-20T22:49:06.202Z,80.34
2017-08-20T22:51:33.612Z,80.32
2017-08-20T22:54:01.010Z,80.54
2017-08-20T22:56:28.410Z,80.08
2017-08-20T22:58:55.811Z,80.48
2017-08-20T23:01:23.256Z,80.38
2017-08-20T23:03:50.662Z,80.44
2017-08-20T23:06:18.059Z,80.50
2017-08-20T23:08:45.614Z,80.37
2017-08-20T23:11:13.020Z,80.25
2017-08-20T23:13:40.410Z,80.30
2017-08-20T23:16:07.833Z,80.33
2017-08-20T23:18:35.235Z,79.65
2017-08-20T23:21:02.632Z,79.78
2017-08-20T23:23:30.182Z,79.76
2017-08-20T23:25:57.597Z,79.95
2017-08-20T23:28:24.986Z,79.52
2017-08-20T23:30:52.391Z,79.63
2017-08-20T23:33:19.787Z,79.24
2017-08-20T23:35:47.184Z,78.53
2017-08-20T23:38:14.623Z,78.30
2017-08-20T23:40:42.018Z,78.68
2017-08-20T23:43:09.414Z,78.94
2017-08-20T23:45:36.972Z,79.08
2017-08-20T23:48:04.362Z,79.39
2017-08-20T23:50:31.759Z,79.34
2017-08-20T23:52:59.194Z,79.33
2017-08-20T23:55:26.586Z,79.54
2017-08-20T23:57:53.986Z,79.80
